Airfield :
LOGIN :

Register | Disclaimer

   EN    FR    IT 

 










Legend :    VFR   Marginal VFR   IFR   Intensive IFR   Very Intensive IFR
Visi :
Ceiling :
>= 8 km
>= 3000ft
5 to 8 km
1000 to 3000 ft
1500m to 5 km
500 to 1000 ft
800 to 1500m
200 to 500 ft
< 800m
< 200 ft
Symbols :   Thunderstorms  Fog  Heavy snow  Heavy precipitations  Wind > 20 kt
SIGMETs :     Misc.  Thunderstorms  Icing  Turbulence  Mountain Waves  Volcanic Ashes






- Airport Elevation : 135 ft
- IATA code : TLV


LLBG - Ben Gurion

CURRENT METAR :
  • 192020Z 15007KT 9999 SCT040 12/11 Q1018 NOSIG RMK RERA

EXPIRED METARs :
  • 191950Z 18006KT 9999 -RA FEW015 BKN040 12/11 Q1018 TEMPO 5000 SHRA FEW025TCU BKN030
  • 191920Z 14010KT 9999 -RA FEW020 BKN030 12/11 Q1018 RERA TEMPO 5000 SHRA FEW025TCU BKN030
  • 191850Z 19007KT 160V220 9999 RA SCT020 BKN040 11/10 Q1018 TEMPO NSW
  • 191820Z 22010KT 9999 RA FEW015 BKN025 11/10 Q1017 NOSIG
  • 191750Z 16007KT 9999 -RA SCT030 SCT050 12/10 Q1017 TEMPO 5000 SHRA FEW025TCU

TAF AMD TAF LLBG
Valid from the 19 at 18:00 until the 20 at 18:00 UTC


191732Z 1918/2018 29010KT 9999 SCT035
TEMPO 1918/1922 30017G27KT 5000 SHRA FEW025TCU BKN035
PROB40
TEMPO 1922/2013 30017G27KT 5000 TSRA SCT020 FEW025CB BKN040
PROB40 2013/2018 9999 -RA BKN025 TX14/2012Z TN11/2004Z
LLLL FIR / Asia



MET'MAP, your aeronautical weather chart ! - Copyright ORBIFLY December 2007 - Disclaimer

ORBIFLY MET'MAP TEAM :

Programming & Development : Alexandra Zaïnal
Concept & original design : Baudouin d'Aumeries
Assistance for programming : Marc-Olivier Méhu
Technical & hardware support : Manuel Goepfert

Contact : metmap@orbifly.com




SOURCES & CREDITS :

   NOAA